PWSweather.com
Personal Weather Stations
Station Observations
NORTHPOLE1
Tombur Subdivision, North Pole, AK 99705

Tombur SubdivisionNorth Pole, AK 99705

Lat: 64.774039, Lon: -147.284862

Elevation: 434

Station Type: Davis Vantage Pro 2

http://kl7ac.com

High Low Average
Temperature 59.3°F15.2°F 32.6°F0.3°F 47.6°F8.7°F
Dew Point 44.9°F7.2°F 28.9°F-1.7°F 38.3°F3.5°F
Winds 6.0 mph NE9.7 mph NE Calm Calm 1.0 mph 1.6 mph
Wind Gusts 14.0 mph22.5 mph -- 4.1 mph6.6 mph
Humidity 90% 52% 71%
Pressure 29.34 in993.60 in 28.99 in981.70 in -
Precipitation 0.00 in0.00 in - -
Hour Temp Dew Point Humidity Winds Wind Gusts Pressure Precip Precip Rate Daily Precip Total
12:00 AM 52.0°F11.1°C 37.2°F2.9°C 57% 5.0 mph NE8.0 kmh NE 10.0 mph16.1 kmh 28.99 in981.7 mb 0.00 in0.0 mm 0.00 in/hr0.0 mm/hr 0.00 in0.0 mm
12:05 AM 51.9°F11.1°C 37.1°F2.8°C 57% 4.0 mph NE6.4 kmh NE 12.0 mph19.3 kmh 28.99 in981.7 mb 0.00 in0.0 mm 0.00 in/hr0.0 mm/hr 0.00 in0.0 mm
12:10 AM 51.7°F10.9°C 36.9°F2.7°C 57% 4.0 mph NE6.4 kmh NE 12.0 mph19.3 kmh 28.99 in981.7 mb 0.00 in0.0 mm 0.00 in/hr0.0 mm/hr 0.00 in0.0 mm
12:15 AM 51.5°F10.8°C 37.2°F2.9°C 58% 4.0 mph NE6.4 kmh NE 11.0 mph17.7 kmh 29.00 in982.1 mb 0.00 in0.0 mm 0.00 in/hr0.0 mm/hr 0.00 in0.0 mm
12:20 AM 51.3°F10.7°C 37.0°F2.8°C 58% 3.0 mph NE4.8 kmh NE 12.0 mph19.3 kmh 29.00 in982.1 mb 0.00 in0.0 mm 0.00 in/hr0.0 mm/hr 0.00 in0.0 mm
12:25 AM 50.9°F10.5°C 36.6°F2.6°C 58% 4.0 mph NE6.4 kmh NE 12.0 mph19.3 kmh 29.00 in982.1 mb 0.00 in0.0 mm 0.00 in/hr0.0 mm/hr 0.00 in0.0 mm
12:30 AM 50.7°F10.4°C 36.5°F2.5°C 58% 5.0 mph NE8.0 kmh NE 14.0 mph22.5 kmh 29.00 in982.1 mb 0.00 in0.0 mm 0.00 in/hr0.0 mm/hr 0.00 in0.0 mm
12:35 AM 50.6°F10.3°C 36.4°F2.4°C 58% 5.0 mph NE8.0 kmh NE 14.0 mph22.5 kmh 29.00 in982.1 mb 0.00 in0.0 mm 0.00 in/hr0.0 mm/hr 0.00 in0.0 mm
12:40 AM 50.7°F10.4°C 36.5°F2.5°C 58% 6.0 mph NE9.7 kmh NE 13.0 mph20.9 kmh 29.00 in982.1 mb 0.00 in0.0 mm 0.00 in/hr0.0 mm/hr 0.00 in0.0 mm
12:45 AM 50.9°F10.5°C 36.6°F2.6°C 58% 5.0 mph NE8.0 kmh NE 12.0 mph19.3 kmh 29.00 in982.1 mb 0.00 in0.0 mm 0.00 in/hr0.0 mm/hr 0.00 in0.0 mm
12:50 AM 51.0°F10.6°C 36.3°F2.4°C 57% 5.0 mph NE8.0 kmh NE 12.0 mph19.3 kmh 29.00 in982.1 mb 0.00 in0.0 mm 0.00 in/hr0.0 mm/hr 0.00 in0.0 mm
12:55 AM 50.9°F10.5°C 36.2°F2.3°C 57% 4.0 mph NE6.4 kmh NE 10.0 mph16.1 kmh 29.00 in982.1 mb 0.00 in0.0 mm 0.00 in/hr0.0 mm/hr 0.00 in0.0 mm
01:00 AM 50.8°F10.4°C 36.5°F2.5°C 58% 4.0 mph NE6.4 kmh NE 11.0 mph17.7 kmh 29.00 in982.1 mb 0.00 in0.0 mm 0.00 in/hr0.0 mm/hr 0.00 in0.0 mm
01:05 AM 50.5°F10.3°C 36.3°F2.4°C 58% 5.0 mph NE8.0 kmh NE 11.0 mph17.7 kmh 29.00 in982.1 mb 0.00 in0.0 mm 0.00 in/hr0.0 mm/hr 0.00 in0.0 mm
01:10 AM 50.3°F10.2°C 36.9°F2.7°C 60% 4.0 mph NE6.4 kmh NE 9.0 mph14.5 kmh 29.00 in982.1 mb 0.00 in0.0 mm 0.00 in/hr0.0 mm/hr 0.00 in0.0 mm
01:15 AM 49.8°F9.9°C 36.5°F2.5°C 60% 4.0 mph NE6.4 kmh NE 8.0 mph12.9 kmh 29.00 in982.1 mb 0.00 in0.0 mm 0.00 in/hr0.0 mm/hr 0.00 in0.0 mm
01:20 AM 49.2°F9.6°C 36.7°F2.6°C 62% 4.0 mph NE6.4 kmh NE 12.0 mph19.3 kmh 29.00 in982.1 mb 0.00 in0.0 mm 0.00 in/hr0.0 mm/hr 0.00 in0.0 mm
01:25 AM 48.6°F9.2°C 36.2°F2.3°C 62% 4.0 mph NE6.4 kmh NE 12.0 mph19.3 kmh 29.00 in982.1 mb 0.00 in0.0 mm 0.00 in/hr0.0 mm/hr 0.00 in0.0 mm
01:30 AM 47.7°F8.7°C 36.1°F2.3°C 64% 4.0 mph NE6.4 kmh NE 12.0 mph19.3 kmh 29.00 in982.1 mb 0.00 in0.0 mm 0.00 in/hr0.0 mm/hr 0.00 in0.0 mm
01:35 AM 46.9°F8.3°C 35.4°F1.9°C 64% 3.0 mph NE4.8 kmh NE 10.0 mph16.1 kmh 29.00 in982.1 mb 0.00 in0.0 mm 0.00 in/hr0.0 mm/hr 0.00 in0.0 mm
01:40 AM 46.1°F7.8°C 35.0°F1.7°C 65% 2.0 mph NE3.2 kmh NE 6.0 mph9.7 kmh 29.01 in982.4 mb 0.00 in0.0 mm 0.00 in/hr0.0 mm/hr 0.00 in0.0 mm
01:45 AM 45.4°F7.4°C 34.7°F1.5°C 66% 2.0 mph NE3.2 kmh NE 6.0 mph9.7 kmh 29.01 in982.4 mb 0.00 in0.0 mm 0.00 in/hr0.0 mm/hr 0.00 in0.0 mm
01:50 AM 44.7°F7.1°C 34.4°F1.3°C 67% 2.0 mph NE3.2 kmh NE 5.0 mph8.0 kmh 29.01 in982.4 mb 0.00 in0.0 mm 0.00 in/hr0.0 mm/hr 0.00 in0.0 mm
01:55 AM 44.2°F6.8°C 34.3°F1.3°C 68% 2.0 mph NE3.2 kmh NE 5.0 mph8.0 kmh 29.01 in982.4 mb 0.00 in0.0 mm 0.00 in/hr0.0 mm/hr 0.00 in0.0 mm
02:00 AM 43.7°F6.5°C 34.2°F1.2°C 69% 2.0 mph NE3.2 kmh NE 5.0 mph8.0 kmh 29.01 in982.4 mb 0.00 in0.0 mm 0.00 in/hr0.0 mm/hr 0.00 in0.0 mm
02:05 AM 43.2°F6.2°C 34.1°F1.2°C 70% 2.0 mph NE3.2 kmh NE 5.0 mph8.0 kmh 29.01 in982.4 mb 0.00 in0.0 mm 0.00 in/hr0.0 mm/hr 0.00 in0.0 mm
02:10 AM 42.7°F5.9°C 33.6°F0.9°C 70% 1.0 mph NE1.6 kmh NE 4.0 mph6.4 kmh 29.01 in982.4 mb 0.00 in0.0 mm 0.00 in/hr0.0 mm/hr 0.00 in0.0 mm
02:15 AM 42.3°F5.7°C 33.2°F0.7°C 70% 1.0 mph NE1.6 kmh NE 4.0 mph6.4 kmh 29.01 in982.4 mb 0.00 in0.0 mm 0.00 in/hr0.0 mm/hr 0.00 in0.0 mm
02:20 AM 42.0°F5.6°C 33.3°F0.7°C 71% 2.0 mph NE3.2 kmh NE 4.0 mph6.4 kmh 29.01 in982.4 mb 0.00 in0.0 mm 0.00 in/hr0.0 mm/hr 0.00 in0.0 mm
02:25 AM 41.7°F5.4°C 33.3°F0.7°C 72% 1.0 mph NE1.6 kmh NE 4.0 mph6.4 kmh 29.02 in982.7 mb 0.00 in0.0 mm 0.00 in/hr0.0 mm/hr 0.00 in0.0 mm
02:30 AM 41.4°F5.2°C 33.4°F0.8°C 73% 1.0 mph NE1.6 kmh NE 4.0 mph6.4 kmh 29.02 in982.7 mb 0.00 in0.0 mm 0.00 in/hr0.0 mm/hr 0.00 in0.0 mm
02:35 AM 41.1°F5.1°C 33.1°F0.6°C 73% 2.0 mph NE3.2 kmh NE 4.0 mph6.4 kmh 29.02 in982.7 mb 0.00 in0.0 mm 0.00 in/hr0.0 mm/hr 0.00 in0.0 mm
02:40 AM 40.8°F4.9°C 33.2°F0.7°C 74% 2.0 mph NE3.2 kmh NE 4.0 mph6.4 kmh 29.02 in982.7 mb 0.00 in0.0 mm 0.00 in/hr0.0 mm/hr 0.00 in0.0 mm
02:45 AM 40.6°F4.8°C 33.0°F0.6°C 74% 2.0 mph NE3.2 kmh NE 5.0 mph8.0 kmh 29.02 in982.7 mb 0.00 in0.0 mm 0.00 in/hr0.0 mm/hr 0.00 in0.0 mm
02:50 AM 40.3°F4.6°C 33.0°F0.6°C 75% 2.0 mph NE3.2 kmh NE 5.0 mph8.0 kmh 29.02 in982.7 mb 0.00 in0.0 mm 0.00 in/hr0.0 mm/hr 0.00 in0.0 mm
02:55 AM 40.0°F4.4°C 32.7°F0.4°C 75% 2.0 mph NNE3.2 kmh NNE 5.0 mph8.0 kmh 29.02 in982.7 mb 0.00 in0.0 mm 0.00 in/hr0.0 mm/hr 0.00 in0.0 mm
03:00 AM 39.7°F4.3°C 32.8°F0.4°C 76% 2.0 mph NE3.2 kmh NE 4.0 mph6.4 kmh 29.02 in982.7 mb 0.00 in0.0 mm 0.00 in/hr0.0 mm/hr 0.00 in0.0 mm
03:05 AM 39.5°F4.2°C 32.6°F0.3°C 76% 1.0 mph NE1.6 kmh NE 4.0 mph6.4 kmh 29.02 in982.7 mb 0.00 in0.0 mm 0.00 in/hr0.0 mm/hr 0.00 in0.0 mm
03:10 AM 39.2°F4.0°C 32.3°F0.2°C 76% 2.0 mph NE3.2 kmh NE 6.0 mph9.7 kmh 29.02 in982.7 mb 0.00 in0.0 mm 0.00 in/hr0.0 mm/hr 0.00 in0.0 mm
03:15 AM 39.0°F3.9°C 32.1°F0.1°C 76% 2.0 mph NE3.2 kmh NE 6.0 mph9.7 kmh 29.02 in982.7 mb 0.00 in0.0 mm 0.00 in/hr0.0 mm/hr 0.00 in0.0 mm
03:20 AM 38.8°F3.8°C 32.2°F0.1°C 77% 1.0 mph NE1.6 kmh NE 5.0 mph8.0 kmh 29.02 in982.7 mb 0.00 in0.0 mm 0.00 in/hr0.0 mm/hr 0.00 in0.0 mm
03:25 AM 38.6°F3.7°C 32.0°F0.0°C 77% 1.0 mph NE1.6 kmh NE 4.0 mph6.4 kmh 29.02 in982.7 mb 0.00 in0.0 mm 0.00 in/hr0.0 mm/hr 0.00 in0.0 mm
03:30 AM 38.4°F3.6°C 32.1°F0.1°C 78% 1.0 mph NE1.6 kmh NE 4.0 mph6.4 kmh 29.02 in982.7 mb 0.00 in0.0 mm 0.00 in/hr0.0 mm/hr 0.00 in0.0 mm
03:35 AM 38.2°F3.4°C 31.9°F-0.1°C 78% 1.0 mph NE1.6 kmh NE 3.0 mph4.8 kmh 29.02 in982.7 mb 0.00 in0.0 mm 0.00 in/hr0.0 mm/hr 0.00 in0.0 mm
03:40 AM 38.1°F3.4°C 31.8°F-0.1°C 78% 1.0 mph NE1.6 kmh NE 3.0 mph4.8 kmh 29.02 in982.7 mb 0.00 in0.0 mm 0.00 in/hr0.0 mm/hr 0.00 in0.0 mm
03:45 AM 38.0°F3.3°C 31.7°F-0.2°C 78% 1.0 mph N1.6 kmh N 4.0 mph6.4 kmh 29.02 in982.7 mb 0.00 in0.0 mm 0.00 in/hr0.0 mm/hr 0.00 in0.0 mm
03:50 AM 37.9°F3.3°C 31.7°F-0.2°C 78% 1.0 mph NNE1.6 kmh NNE 4.0 mph6.4 kmh 29.03 in983.1 mb 0.00 in0.0 mm 0.00 in/hr0.0 mm/hr 0.00 in0.0 mm
03:55 AM 37.7°F3.2°C 31.5°F-0.3°C 78% 1.0 mph NNE1.6 kmh NNE 4.0 mph6.4 kmh 29.03 in983.1 mb 0.00 in0.0 mm 0.00 in/hr0.0 mm/hr 0.00 in0.0 mm
04:00 AM 37.6°F3.1°C 31.7°F-0.2°C 79% 1.0 mph NNE1.6 kmh NNE 3.0 mph4.8 kmh 29.03 in983.1 mb 0.00 in0.0 mm 0.00 in/hr0.0 mm/hr 0.00 in0.0 mm
04:05 AM 37.5°F3.1°C 31.6°F-0.2°C 79% 1.0 mph NNE1.6 kmh NNE 3.0 mph4.8 kmh 29.03 in983.1 mb 0.00 in0.0 mm 0.00 in/hr0.0 mm/hr 0.00 in0.0 mm
04:10 AM 37.4°F3.0°C 31.5°F-0.3°C 79% 1.0 mph NNE1.6 kmh NNE 3.0 mph4.8 kmh 29.03 in983.1 mb 0.00 in0.0 mm 0.00 in/hr0.0 mm/hr 0.00 in0.0 mm
04:15 AM 37.3°F2.9°C 31.4°F-0.3°C 79% 2.0 mph NNE3.2 kmh NNE 4.0 mph6.4 kmh 29.03 in983.1 mb 0.00 in0.0 mm 0.00 in/hr0.0 mm/hr 0.00 in0.0 mm
04:20 AM 37.2°F2.9°C 31.6°F-0.2°C 80% 1.0 mph NNE1.6 kmh NNE 4.0 mph6.4 kmh 29.03 in983.1 mb 0.00 in0.0 mm 0.00 in/hr0.0 mm/hr 0.00 in0.0 mm
04:25 AM 37.1°F2.8°C 31.5°F-0.3°C 80% 1.0 mph NE1.6 kmh NE 3.0 mph4.8 kmh 29.04 in983.4 mb 0.00 in0.0 mm 0.00 in/hr0.0 mm/hr 0.00 in0.0 mm
04:30 AM 37.1°F2.8°C 31.5°F-0.3°C 80% 1.0 mph NE1.6 kmh NE 3.0 mph4.8 kmh 29.04 in983.4 mb 0.00 in0.0 mm 0.00 in/hr0.0 mm/hr 0.00 in0.0 mm
04:35 AM 37.0°F2.8°C 31.4°F-0.3°C 80% 1.0 mph NE1.6 kmh NE 3.0 mph4.8 kmh 29.04 in983.4 mb 0.00 in0.0 mm 0.00 in/hr0.0 mm/hr 0.00 in0.0 mm
04:40 AM 36.9°F2.7°C 31.3°F-0.4°C 80% 1.0 mph NE1.6 kmh NE 3.0 mph4.8 kmh 29.04 in983.4 mb 0.00 in0.0 mm 0.00 in/hr0.0 mm/hr 0.00 in0.0 mm
04:45 AM 36.8°F2.7°C 31.2°F-0.4°C 80% 1.0 mph NE1.6 kmh NE 3.0 mph4.8 kmh 29.04 in983.4 mb 0.00 in0.0 mm 0.00 in/hr0.0 mm/hr 0.00 in0.0 mm
04:50 AM 36.6°F2.6°C 31.0°F-0.6°C 80% 1.0 mph NE1.6 kmh NE 3.0 mph4.8 kmh 29.04 in983.4 mb 0.00 in0.0 mm 0.00 in/hr0.0 mm/hr 0.00 in0.0 mm
04:55 AM 36.5°F2.5°C 30.9°F-0.6°C 80% 1.0 mph NE1.6 kmh NE 3.0 mph4.8 kmh 29.05 in983.7 mb 0.00 in0.0 mm 0.00 in/hr0.0 mm/hr 0.00 in0.0 mm
05:00 AM 36.3°F2.4°C 30.7°F-0.7°C 80% Calm Calm 2.0 mph3.2 kmh 29.05 in983.7 mb 0.00 in0.0 mm 0.00 in/hr0.0 mm/hr 0.00 in0.0 mm
05:05 AM 36.1°F2.3°C 30.5°F-0.8°C 80% Calm Calm 2.0 mph3.2 kmh 29.05 in983.7 mb 0.00 in0.0 mm 0.00 in/hr0.0 mm/hr 0.00 in0.0 mm
05:10 AM 36.0°F2.2°C 30.7°F-0.7°C 81% Calm Calm 2.0 mph3.2 kmh 29.05 in983.7 mb 0.00 in0.0 mm 0.00 in/hr0.0 mm/hr 0.00 in0.0 mm
05:15 AM 35.9°F2.2°C 30.9°F-0.6°C 82% Calm Calm 2.0 mph3.2 kmh 29.05 in983.7 mb 0.00 in0.0 mm 0.00 in/hr0.0 mm/hr 0.00 in0.0 mm
05:20 AM 35.7°F2.1°C 30.4°F-0.9°C 81% 1.0 mph NE1.6 kmh NE 2.0 mph3.2 kmh 29.05 in983.7 mb 0.00 in0.0 mm 0.00 in/hr0.0 mm/hr 0.00 in0.0 mm
05:25 AM 35.5°F1.9°C 30.2°F-1.0°C 81% 1.0 mph NE1.6 kmh NE 3.0 mph4.8 kmh 29.05 in983.7 mb 0.00 in0.0 mm 0.00 in/hr0.0 mm/hr 0.00 in0.0 mm
05:30 AM 35.3°F1.8°C 30.4°F-0.9°C 82% 1.0 mph NE1.6 kmh NE 3.0 mph4.8 kmh 29.06 in984.1 mb 0.00 in0.0 mm 0.00 in/hr0.0 mm/hr 0.00 in0.0 mm
05:35 AM 35.0°F1.7°C 30.1°F-1.1°C 82% Calm Calm 2.0 mph3.2 kmh 29.06 in984.1 mb 0.00 in0.0 mm 0.00 in/hr0.0 mm/hr 0.00 in0.0 mm
05:40 AM 34.9°F1.6°C 30.3°F-0.9°C 83% Calm Calm 1.0 mph1.6 kmh 29.06 in984.1 mb 0.00 in0.0 mm 0.00 in/hr0.0 mm/hr 0.00 in0.0 mm
05:45 AM 34.8°F1.6°C 30.2°F-1.0°C 83% Calm Calm 1.0 mph1.6 kmh 29.06 in984.1 mb 0.00 in0.0 mm 0.00 in/hr0.0 mm/hr 0.00 in0.0 mm
05:50 AM 34.6°F1.4°C 30.0°F-1.1°C 83% Calm Calm 1.0 mph1.6 kmh 29.07 in984.4 mb 0.00 in0.0 mm 0.00 in/hr0.0 mm/hr 0.00 in0.0 mm
05:55 AM 34.4°F1.3°C 29.8°F-1.2°C 83% Calm Calm 1.0 mph1.6 kmh 29.07 in984.4 mb 0.00 in0.0 mm 0.00 in/hr0.0 mm/hr 0.00 in0.0 mm
06:00 AM 34.4°F1.3°C 30.1°F-1.1°C 84% Calm Calm 2.0 mph3.2 kmh 29.07 in984.4 mb 0.00 in0.0 mm 0.00 in/hr0.0 mm/hr 0.00 in0.0 mm
06:05 AM 34.3°F1.3°C 30.0°F-1.1°C 84% Calm Calm 3.0 mph4.8 kmh 29.07 in984.4 mb 0.00 in0.0 mm 0.00 in/hr0.0 mm/hr 0.00 in0.0 mm
06:10 AM 34.2°F1.2°C 29.9°F-1.2°C 84% Calm Calm 3.0 mph4.8 kmh 29.07 in984.4 mb 0.00 in0.0 mm 0.00 in/hr0.0 mm/hr 0.00 in0.0 mm
06:15 AM 34.0°F1.1°C 29.7°F-1.3°C 84% Calm Calm 2.0 mph3.2 kmh 29.08 in984.8 mb 0.00 in0.0 mm 0.00 in/hr0.0 mm/hr 0.00 in0.0 mm
06:20 AM 33.9°F1.1°C 29.6°F-1.3°C 84% Calm Calm 2.0 mph3.2 kmh 29.08 in984.8 mb 0.00 in0.0 mm 0.00 in/hr0.0 mm/hr 0.00 in0.0 mm
06:25 AM 33.7°F0.9°C 29.4°F-1.4°C 84% Calm Calm 2.0 mph3.2 kmh 29.08 in984.8 mb 0.00 in0.0 mm 0.00 in/hr0.0 mm/hr 0.00 in0.0 mm
06:30 AM 33.5°F0.8°C 29.2°F-1.6°C 84% Calm Calm 2.0 mph3.2 kmh 29.08 in984.8 mb 0.00 in0.0 mm 0.00 in/hr0.0 mm/hr 0.00 in0.0 mm
06:35 AM 33.3°F0.7°C 29.0°F-1.7°C 84% Calm Calm 2.0 mph3.2 kmh 29.09 in985.1 mb 0.00 in0.0 mm 0.00 in/hr0.0 mm/hr 0.00 in0.0 mm
06:40 AM 33.1°F0.6°C 29.1°F-1.6°C 85% Calm Calm 2.0 mph3.2 kmh 29.09 in985.1 mb 0.00 in0.0 mm 0.00 in/hr0.0 mm/hr 0.00 in0.0 mm
06:45 AM 33.0°F0.6°C 29.0°F-1.7°C 85% Calm Calm 2.0 mph3.2 kmh 29.09 in985.1 mb 0.00 in0.0 mm 0.00 in/hr0.0 mm/hr 0.00 in0.0 mm
06:50 AM 33.0°F0.6°C 29.3°F-1.5°C 86% Calm Calm 2.0 mph3.2 kmh 29.10 in985.4 mb 0.00 in0.0 mm 0.00 in/hr0.0 mm/hr 0.00 in0.0 mm
06:55 AM 32.9°F0.5°C 29.2°F-1.6°C 86% Calm Calm 1.0 mph1.6 kmh 29.10 in985.4 mb 0.00 in0.0 mm 0.00 in/hr0.0 mm/hr 0.00 in0.0 mm
07:00 AM 32.9°F0.5°C 29.2°F-1.6°C 86% Calm Calm 1.0 mph1.6 kmh 29.10 in985.4 mb 0.00 in0.0 mm 0.00 in/hr0.0 mm/hr 0.00 in0.0 mm
07:05 AM 32.8°F0.4°C 29.1°F-1.6°C 86% Calm Calm 2.0 mph3.2 kmh 29.10 in985.4 mb 0.00 in0.0 mm 0.00 in/hr0.0 mm/hr 0.00 in0.0 mm
07:10 AM 32.7°F0.4°C 29.0°F-1.7°C 86% Calm Calm 2.0 mph3.2 kmh 29.11 in985.8 mb 0.00 in0.0 mm 0.00 in/hr0.0 mm/hr 0.00 in0.0 mm
07:15 AM 32.6°F0.3°C 28.9°F-1.7°C 86% Calm Calm 2.0 mph3.2 kmh 29.11 in985.8 mb 0.00 in0.0 mm 0.00 in/hr0.0 mm/hr 0.00 in0.0 mm
07:20 AM 32.6°F0.3°C 29.2°F-1.6°C 87% 1.0 mph E1.6 kmh E 3.0 mph4.8 kmh 29.11 in985.8 mb 0.00 in0.0 mm 0.00 in/hr0.0 mm/hr 0.00 in0.0 mm
07:25 AM 32.7°F0.4°C 29.3°F-1.5°C 87% 1.0 mph E1.6 kmh E 3.0 mph4.8 kmh 29.11 in985.8 mb 0.00 in0.0 mm 0.00 in/hr0.0 mm/hr 0.00 in0.0 mm
07:30 AM 32.8°F0.4°C 29.6°F-1.3°C 88% 1.0 mph E1.6 kmh E 4.0 mph6.4 kmh 29.12 in986.1 mb 0.00 in0.0 mm 0.00 in/hr0.0 mm/hr 0.00 in0.0 mm
07:35 AM 33.0°F0.6°C 29.8°F-1.2°C 88% 1.0 mph E1.6 kmh E 4.0 mph6.4 kmh 29.12 in986.1 mb 0.00 in0.0 mm 0.00 in/hr0.0 mm/hr 0.00 in0.0 mm
07:40 AM 33.3°F0.7°C 30.4°F-0.9°C 89% Calm Calm 2.0 mph3.2 kmh 29.12 in986.1 mb 0.00 in0.0 mm 0.00 in/hr0.0 mm/hr 0.00 in0.0 mm
07:45 AM 33.7°F0.9°C 31.1°F-0.5°C 90% 1.0 mph E1.6 kmh E 3.0 mph4.8 kmh 29.12 in986.1 mb 0.00 in0.0 mm 0.00 in/hr0.0 mm/hr 0.00 in0.0 mm
07:50 AM 34.1°F1.2°C 31.5°F-0.3°C 90% Calm Calm 3.0 mph4.8 kmh 29.12 in986.1 mb 0.00 in0.0 mm 0.00 in/hr0.0 mm/hr 0.00 in0.0 mm
07:55 AM 34.4°F1.3°C 31.8°F-0.1°C 90% Calm Calm 2.0 mph3.2 kmh 29.13 in986.5 mb 0.00 in0.0 mm 0.00 in/hr0.0 mm/hr 0.00 in0.0 mm
08:00 AM 34.6°F1.4°C 32.0°F0.0°C 90% 1.0 mph ESE1.6 kmh ESE 4.0 mph6.4 kmh 29.13 in986.5 mb 0.00 in0.0 mm 0.00 in/hr0.0 mm/hr 0.00 in0.0 mm
08:05 AM 34.9°F1.6°C 32.3°F0.2°C 90% 1.0 mph SE1.6 kmh SE 4.0 mph6.4 kmh 29.13 in986.5 mb 0.00 in0.0 mm 0.00 in/hr0.0 mm/hr 0.00 in0.0 mm
08:10 AM 35.2°F1.8°C 32.6°F0.3°C 90% Calm Calm 4.0 mph6.4 kmh 29.14 in986.8 mb 0.00 in0.0 mm 0.00 in/hr0.0 mm/hr 0.00 in0.0 mm
08:15 AM 35.5°F1.9°C 32.9°F0.5°C 90% 1.0 mph SE1.6 kmh SE 5.0 mph8.0 kmh 29.14 in986.8 mb 0.00 in0.0 mm 0.00 in/hr0.0 mm/hr 0.00 in0.0 mm
08:20 AM 35.8°F2.1°C 33.2°F0.7°C 90% 1.0 mph SE1.6 kmh SE 5.0 mph8.0 kmh 29.14 in986.8 mb 0.00 in0.0 mm 0.00 in/hr0.0 mm/hr 0.00 in0.0 mm
08:25 AM 36.1°F2.3°C 33.2°F0.7°C 89% 1.0 mph SE1.6 kmh SE 3.0 mph4.8 kmh 29.14 in986.8 mb 0.00 in0.0 mm 0.00 in/hr0.0 mm/hr 0.00 in0.0 mm
08:30 AM 36.4°F2.4°C 33.5°F0.8°C 89% 1.0 mph SE1.6 kmh SE 3.0 mph4.8 kmh 29.14 in986.8 mb 0.00 in0.0 mm 0.00 in/hr0.0 mm/hr 0.00 in0.0 mm
08:35 AM 36.9°F2.7°C 34.2°F1.2°C 90% 1.0 mph SE1.6 kmh SE 4.0 mph6.4 kmh 29.14 in986.8 mb 0.00 in0.0 mm 0.00 in/hr0.0 mm/hr 0.00 in0.0 mm
08:40 AM 37.3°F2.9°C 34.6°F1.4°C 90% 1.0 mph SE1.6 kmh SE 5.0 mph8.0 kmh 29.14 in986.8 mb 0.00 in0.0 mm 0.00 in/hr0.0 mm/hr 0.00 in0.0 mm
08:45 AM 37.9°F3.3°C 34.9°F1.6°C 89% 1.0 mph SE1.6 kmh SE 5.0 mph8.0 kmh 29.14 in986.8 mb 0.00 in0.0 mm 0.00 in/hr0.0 mm/hr 0.00 in0.0 mm
08:50 AM 38.6°F3.7°C 35.6°F2.0°C 89% 2.0 mph SE3.2 kmh SE 5.0 mph8.0 kmh 29.15 in987.1 mb 0.00 in0.0 mm 0.00 in/hr0.0 mm/hr 0.00 in0.0 mm
08:55 AM 39.1°F3.9°C 35.8°F2.1°C 88% 1.0 mph SE1.6 kmh SE 4.0 mph6.4 kmh 29.15 in987.1 mb 0.00 in0.0 mm 0.00 in/hr0.0 mm/hr 0.00 in0.0 mm
09:00 AM 39.5°F4.2°C 36.0°F2.2°C 87% Calm Calm 3.0 mph4.8 kmh 29.15 in987.1 mb 0.00 in0.0 mm 0.00 in/hr0.0 mm/hr 0.00 in0.0 mm
09:05 AM 40.1°F4.5°C 36.2°F2.3°C 86% Calm Calm 3.0 mph4.8 kmh 29.15 in987.1 mb 0.00 in0.0 mm 0.00 in/hr0.0 mm/hr 0.00 in0.0 mm
09:10 AM 40.6°F4.8°C 36.4°F2.4°C 85% 1.0 mph SE1.6 kmh SE 4.0 mph6.4 kmh 29.15 in987.1 mb 0.00 in0.0 mm 0.00 in/hr0.0 mm/hr 0.00 in0.0 mm
09:15 AM 41.1°F5.1°C 36.6°F2.6°C 84% Calm Calm 4.0 mph6.4 kmh 29.15 in987.1 mb 0.00 in0.0 mm 0.00 in/hr0.0 mm/hr 0.00 in0.0 mm
09:20 AM 41.5°F5.3°C 37.0°F2.8°C 84% Calm Calm 3.0 mph4.8 kmh 29.15 in987.1 mb 0.00 in0.0 mm 0.00 in/hr0.0 mm/hr 0.00 in0.0 mm
09:25 AM 41.8°F5.4°C 37.0°F2.8°C 83% Calm Calm 3.0 mph4.8 kmh 29.16 in987.5 mb 0.00 in0.0 mm 0.00 in/hr0.0 mm/hr 0.00 in0.0 mm
09:30 AM 42.2°F5.7°C 37.4°F3.0°C 83% Calm Calm 3.0 mph4.8 kmh 29.16 in987.5 mb 0.00 in0.0 mm 0.00 in/hr0.0 mm/hr 0.00 in0.0 mm
09:35 AM 42.6°F5.9°C 37.5°F3.1°C 82% Calm Calm 2.0 mph3.2 kmh 29.16 in987.5 mb 0.00 in0.0 mm 0.00 in/hr0.0 mm/hr 0.00 in0.0 mm
09:40 AM 42.9°F6.1°C 37.8°F3.2°C 82% Calm Calm 2.0 mph3.2 kmh 29.16 in987.5 mb 0.00 in0.0 mm 0.00 in/hr0.0 mm/hr 0.00 in0.0 mm
09:45 AM 43.4°F6.3°C 37.6°F3.1°C 80% Calm Calm 2.0 mph3.2 kmh 29.16 in987.5 mb 0.00 in0.0 mm 0.00 in/hr0.0 mm/hr 0.00 in0.0 mm
09:50 AM 44.0°F6.7°C 37.9°F3.3°C 79% Calm Calm 3.0 mph4.8 kmh 29.16 in987.5 mb 0.00 in0.0 mm 0.00 in/hr0.0 mm/hr 0.00 in0.0 mm
09:55 AM 44.5°F6.9°C 38.1°F3.4°C 78% 1.0 mph SSE1.6 kmh SSE 4.0 mph6.4 kmh 29.16 in987.5 mb 0.00 in0.0 mm 0.00 in/hr0.0 mm/hr 0.00 in0.0 mm
10:00 AM 45.0°F7.2°C 38.2°F3.4°C 77% 1.0 mph S1.6 kmh S 4.0 mph6.4 kmh 29.16 in987.5 mb 0.00 in0.0 mm 0.00 in/hr0.0 mm/hr 0.00 in0.0 mm
10:05 AM 45.4°F7.4°C 38.6°F3.7°C 77% 1.0 mph SSE1.6 kmh SSE 4.0 mph6.4 kmh 29.17 in987.8 mb 0.00 in0.0 mm 0.00 in/hr0.0 mm/hr 0.00 in0.0 mm
10:10 AM 45.8°F7.7°C 38.7°F3.7°C 76% 1.0 mph SSE1.6 kmh SSE 4.0 mph6.4 kmh 29.17 in987.8 mb 0.00 in0.0 mm 0.00 in/hr0.0 mm/hr 0.00 in0.0 mm
10:15 AM 46.1°F7.8°C 38.6°F3.7°C 75% 1.0 mph SSE1.6 kmh SSE 3.0 mph4.8 kmh 29.17 in987.8 mb 0.00 in0.0 mm 0.00 in/hr0.0 mm/hr 0.00 in0.0 mm
10:20 AM 46.5°F8.1°C 39.0°F3.9°C 75% Calm Calm 3.0 mph4.8 kmh 29.17 in987.8 mb 0.00 in0.0 mm 0.00 in/hr0.0 mm/hr 0.00 in0.0 mm
10:25 AM 47.2°F8.4°C 39.3°F4.1°C 74% 1.0 mph SSE1.6 kmh SSE 4.0 mph6.4 kmh 29.17 in987.8 mb 0.00 in0.0 mm 0.00 in/hr0.0 mm/hr 0.00 in0.0 mm
10:30 AM 47.9°F8.8°C 39.7°F4.3°C 73% 1.0 mph SE1.6 kmh SE 4.0 mph6.4 kmh 29.17 in987.8 mb 0.00 in0.0 mm 0.00 in/hr0.0 mm/hr 0.00 in0.0 mm
10:35 AM 48.5°F9.2°C 39.9°F4.4°C 72% Calm Calm 3.0 mph4.8 kmh 29.17 in987.8 mb 0.00 in0.0 mm 0.00 in/hr0.0 mm/hr 0.00 in0.0 mm
10:40 AM 48.9°F9.4°C 39.9°F4.4°C 71% Calm Calm 3.0 mph4.8 kmh 29.17 in987.8 mb 0.00 in0.0 mm 0.00 in/hr0.0 mm/hr 0.00 in0.0 mm
10:45 AM 49.1°F9.5°C 39.4°F4.1°C 69% Calm Calm 4.0 mph6.4 kmh 29.17 in987.8 mb 0.00 in0.0 mm 0.00 in/hr0.0 mm/hr 0.00 in0.0 mm
10:50 AM 49.2°F9.6°C 39.5°F4.2°C 69% Calm Calm 4.0 mph6.4 kmh 29.17 in987.8 mb 0.00 in0.0 mm 0.00 in/hr0.0 mm/hr 0.00 in0.0 mm
10:55 AM 49.5°F9.7°C 39.7°F4.3°C 69% Calm Calm 3.0 mph4.8 kmh 29.17 in987.8 mb 0.00 in0.0 mm 0.00 in/hr0.0 mm/hr 0.00 in0.0 mm
11:00 AM 49.8°F9.9°C 39.7°F4.3°C 68% 1.0 mph SSE1.6 kmh SSE 4.0 mph6.4 kmh 29.17 in987.8 mb 0.00 in0.0 mm 0.00 in/hr0.0 mm/hr 0.00 in0.0 mm
11:05 AM 50.0°F10.0°C 39.8°F4.3°C 68% 1.0 mph SSE1.6 kmh SSE 4.0 mph6.4 kmh 29.18 in988.1 mb 0.00 in0.0 mm 0.00 in/hr0.0 mm/hr 0.00 in0.0 mm
11:10 AM 50.3°F10.2°C 39.8°F4.3°C 67% 1.0 mph SSE1.6 kmh SSE 4.0 mph6.4 kmh 29.18 in988.1 mb 0.00 in0.0 mm 0.00 in/hr0.0 mm/hr 0.00 in0.0 mm
11:15 AM 50.6°F10.3°C 40.0°F4.4°C 67% 1.0 mph SSE1.6 kmh SSE 5.0 mph8.0 kmh 29.18 in988.1 mb 0.00 in0.0 mm 0.00 in/hr0.0 mm/hr 0.00 in0.0 mm
11:20 AM 50.9°F10.5°C 40.3°F4.6°C 67% 1.0 mph SE1.6 kmh SE 5.0 mph8.0 kmh 29.18 in988.1 mb 0.00 in0.0 mm 0.00 in/hr0.0 mm/hr 0.00 in0.0 mm
11:25 AM 51.4°F10.8°C 40.4°F4.7°C 66% 1.0 mph SE1.6 kmh SE 4.0 mph6.4 kmh 29.18 in988.1 mb 0.00 in0.0 mm 0.00 in/hr0.0 mm/hr 0.00 in0.0 mm
11:30 AM 52.2°F11.2°C 40.8°F4.9°C 65% Calm Calm 3.0 mph4.8 kmh 29.18 in988.1 mb 0.00 in0.0 mm 0.00 in/hr0.0 mm/hr 0.00 in0.0 mm
11:35 AM 53.3°F11.8°C 41.4°F5.2°C 64% Calm Calm 3.0 mph4.8 kmh 29.18 in988.1 mb 0.00 in0.0 mm 0.00 in/hr0.0 mm/hr 0.00 in0.0 mm
11:40 AM 54.7°F12.6°C 41.5°F5.3°C 61% 1.0 mph S1.6 kmh S 3.0 mph4.8 kmh 29.18 in988.1 mb 0.00 in0.0 mm 0.00 in/hr0.0 mm/hr 0.00 in0.0 mm
11:45 AM 55.7°F13.2°C 41.6°F5.3°C 59% 1.0 mph S1.6 kmh S 3.0 mph4.8 kmh 29.18 in988.1 mb 0.00 in0.0 mm 0.00 in/hr0.0 mm/hr 0.00 in0.0 mm
11:50 AM 56.4°F13.6°C 41.8°F5.4°C 58% 1.0 mph SSE1.6 kmh SSE 4.0 mph6.4 kmh 29.18 in988.1 mb 0.00 in0.0 mm 0.00 in/hr0.0 mm/hr 0.00 in0.0 mm
11:55 AM 57.2°F14.0°C 41.6°F5.3°C 56% 1.0 mph SSE1.6 kmh SSE 5.0 mph8.0 kmh 29.18 in988.1 mb 0.00 in0.0 mm 0.00 in/hr0.0 mm/hr 0.00 in0.0 mm
12:00 PM 57.7°F14.3°C 41.6°F5.3°C 55% 1.0 mph SSE1.6 kmh SSE 5.0 mph8.0 kmh 29.18 in988.1 mb 0.00 in0.0 mm 0.00 in/hr0.0 mm/hr 0.00 in0.0 mm
12:05 PM 58.0°F14.4°C 41.4°F5.2°C 54% 1.0 mph SSE1.6 kmh SSE 5.0 mph8.0 kmh 29.18 in988.1 mb 0.00 in0.0 mm 0.00 in/hr0.0 mm/hr 0.00 in0.0 mm
12:10 PM 57.8°F14.3°C 41.3°F5.2°C 54% 1.0 mph SW1.6 kmh SW 6.0 mph9.7 kmh 29.19 in988.5 mb 0.00 in0.0 mm 0.00 in/hr0.0 mm/hr 0.00 in0.0 mm
12:15 PM 57.3°F14.1°C 41.3°F5.2°C 55% 1.0 mph SW1.6 kmh SW 6.0 mph9.7 kmh 29.19 in988.5 mb 0.00 in0.0 mm 0.00 in/hr0.0 mm/hr 0.00 in0.0 mm
12:20 PM 57.1°F13.9°C 41.5°F5.3°C 56% 1.0 mph SW1.6 kmh SW 4.0 mph6.4 kmh 29.19 in988.5 mb 0.00 in0.0 mm 0.00 in/hr0.0 mm/hr 0.00 in0.0 mm
12:25 PM 57.2°F14.0°C 42.1°F5.6°C 57% 1.0 mph SW1.6 kmh SW 4.0 mph6.4 kmh 29.19 in988.5 mb 0.00 in0.0 mm 0.00 in/hr0.0 mm/hr 0.00 in0.0 mm
12:30 PM 57.6°F14.2°C 41.5°F5.3°C 55% 1.0 mph SW1.6 kmh SW 5.0 mph8.0 kmh 29.19 in988.5 mb 0.00 in0.0 mm 0.00 in/hr0.0 mm/hr 0.00 in0.0 mm
12:35 PM 58.1°F14.5°C 41.5°F5.3°C 54% 1.0 mph SW1.6 kmh SW 5.0 mph8.0 kmh 29.19 in988.5 mb 0.00 in0.0 mm 0.00 in/hr0.0 mm/hr 0.00 in0.0 mm
12:40 PM 58.1°F14.5°C 41.5°F5.3°C 54% Calm Calm 5.0 mph8.0 kmh 29.19 in988.5 mb 0.00 in0.0 mm 0.00 in/hr0.0 mm/hr 0.00 in0.0 mm
12:45 PM 58.0°F14.4°C 41.4°F5.2°C 54% 1.0 mph S1.6 kmh S 5.0 mph8.0 kmh 29.19 in988.5 mb 0.00 in0.0 mm 0.00 in/hr0.0 mm/hr 0.00 in0.0 mm
12:50 PM 57.8°F14.3°C 41.3°F5.2°C 54% 1.0 mph SSE1.6 kmh SSE 4.0 mph6.4 kmh 29.19 in988.5 mb 0.00 in0.0 mm 0.00 in/hr0.0 mm/hr 0.00 in0.0 mm
12:55 PM 57.7°F14.3°C 41.6°F5.3°C 55% 2.0 mph SSW3.2 kmh SSW 4.0 mph6.4 kmh 29.19 in988.5 mb 0.00 in0.0 mm 0.00 in/hr0.0 mm/hr 0.00 in0.0 mm
01:00 PM 57.7°F14.3°C 41.2°F5.1°C 54% 1.0 mph SW1.6 kmh SW 4.0 mph6.4 kmh 29.19 in988.5 mb 0.00 in0.0 mm 0.00 in/hr0.0 mm/hr 0.00 in0.0 mm
01:05 PM 57.7°F14.3°C 41.6°F5.3°C 55% 1.0 mph WSW1.6 kmh WSW 6.0 mph9.7 kmh 29.19 in988.5 mb 0.00 in0.0 mm 0.00 in/hr0.0 mm/hr 0.00 in0.0 mm
01:10 PM 57.8°F14.3°C 41.7°F5.4°C 55% 2.0 mph WSW3.2 kmh WSW 6.0 mph9.7 kmh 29.19 in988.5 mb 0.00 in0.0 mm 0.00 in/hr0.0 mm/hr 0.00 in0.0 mm
01:15 PM 57.9°F14.4°C 41.3°F5.2°C 54% 2.0 mph WSW3.2 kmh WSW 6.0 mph9.7 kmh 29.20 in988.8 mb 0.00 in0.0 mm 0.00 in/hr0.0 mm/hr 0.00 in0.0 mm
01:20 PM 58.0°F14.4°C 41.4°F5.2°C 54% 2.0 mph WSW3.2 kmh WSW 8.0 mph12.9 kmh 29.20 in988.8 mb 0.00 in0.0 mm 0.00 in/hr0.0 mm/hr 0.00 in0.0 mm
01:25 PM 58.1°F14.5°C 41.0°F5.0°C 53% 2.0 mph SW3.2 kmh SW 8.0 mph12.9 kmh 29.20 in988.8 mb 0.00 in0.0 mm 0.00 in/hr0.0 mm/hr 0.00 in0.0 mm
01:30 PM 58.1°F14.5°C 41.0°F5.0°C 53% 1.0 mph SW1.6 kmh SW 5.0 mph8.0 kmh 29.20 in988.8 mb 0.00 in0.0 mm 0.00 in/hr0.0 mm/hr 0.00 in0.0 mm
01:35 PM 58.2°F14.6°C 42.1°F5.6°C 55% 1.0 mph WSW1.6 kmh WSW 5.0 mph8.0 kmh 29.20 in988.8 mb 0.00 in0.0 mm 0.00 in/hr0.0 mm/hr 0.00 in0.0 mm
01:40 PM 58.2°F14.6°C 41.6°F5.3°C 54% Calm Calm 3.0 mph4.8 kmh 29.20 in988.8 mb 0.00 in0.0 mm 0.00 in/hr0.0 mm/hr 0.00 in0.0 mm
01:45 PM 58.2°F14.6°C 41.1°F5.1°C 53% 1.0 mph SW1.6 kmh SW 3.0 mph4.8 kmh 29.20 in988.8 mb 0.00 in0.0 mm 0.00 in/hr0.0 mm/hr 0.00 in0.0 mm
01:50 PM 58.3°F14.6°C 41.7°F5.4°C 54% Calm Calm 3.0 mph4.8 kmh 29.20 in988.8 mb 0.00 in0.0 mm 0.00 in/hr0.0 mm/hr 0.00 in0.0 mm
01:55 PM 58.4°F14.7°C 41.8°F5.4°C 54% Calm Calm 4.0 mph6.4 kmh 29.20 in988.8 mb 0.00 in0.0 mm 0.00 in/hr0.0 mm/hr 0.00 in0.0 mm
02:00 PM 58.7°F14.8°C 41.6°F5.3°C 53% 1.0 mph S1.6 kmh S 9.0 mph14.5 kmh 29.20 in988.8 mb 0.00 in0.0 mm 0.00 in/hr0.0 mm/hr 0.00 in0.0 mm
02:05 PM 59.0°F15.0°C 41.4°F5.2°C 52% 1.0 mph S1.6 kmh S 9.0 mph14.5 kmh 29.20 in988.8 mb 0.00 in0.0 mm 0.00 in/hr0.0 mm/hr 0.00 in0.0 mm
02:10 PM 59.0°F15.0°C 41.9°F5.5°C 53% 1.0 mph SSW1.6 kmh SSW 5.0 mph8.0 kmh 29.20 in988.8 mb 0.00 in0.0 mm 0.00 in/hr0.0 mm/hr 0.00 in0.0 mm
02:15 PM 59.0°F15.0°C 41.9°F5.5°C 53% 1.0 mph SW1.6 kmh SW 5.0 mph8.0 kmh 29.20 in988.8 mb 0.00 in0.0 mm 0.00 in/hr0.0 mm/hr 0.00 in0.0 mm
02:20 PM 59.0°F15.0°C 41.9°F5.5°C 53% 2.0 mph SW3.2 kmh SW 6.0 mph9.7 kmh 29.21 in989.2 mb 0.00 in0.0 mm 0.00 in/hr0.0 mm/hr 0.00 in0.0 mm
02:25 PM 59.0°F15.0°C 41.4°F5.2°C 52% 2.0 mph SSW3.2 kmh SSW 6.0 mph9.7 kmh 29.21 in989.2 mb 0.00 in0.0 mm 0.00 in/hr0.0 mm/hr 0.00 in0.0 mm
02:30 PM 59.0°F15.0°C 41.4°F5.2°C 52% 1.0 mph SE1.6 kmh SE 5.0 mph8.0 kmh 29.21 in989.2 mb 0.00 in0.0 mm 0.00 in/hr0.0 mm/hr 0.00 in0.0 mm
02:35 PM 59.0°F15.0°C 41.9°F5.5°C 53% Calm Calm 3.0 mph4.8 kmh 29.21 in989.2 mb 0.00 in0.0 mm 0.00 in/hr0.0 mm/hr 0.00 in0.0 mm
02:40 PM 59.1°F15.1°C 42.0°F5.6°C 53% 1.0 mph SE1.6 kmh SE 9.0 mph14.5 kmh 29.21 in989.2 mb 0.00 in0.0 mm 0.00 in/hr0.0 mm/hr 0.00 in0.0 mm
02:45 PM 59.2°F15.1°C 42.1°F5.6°C 53% 2.0 mph SSE3.2 kmh SSE 9.0 mph14.5 kmh 29.21 in989.2 mb 0.00 in0.0 mm 0.00 in/hr0.0 mm/hr 0.00 in0.0 mm
02:50 PM 59.3°F15.2°C 41.7°F5.4°C 52% 2.0 mph S3.2 kmh S 7.0 mph11.3 kmh 29.21 in989.2 mb 0.00 in0.0 mm 0.00 in/hr0.0 mm/hr 0.00 in0.0 mm
02:55 PM 59.3°F15.2°C 42.2°F5.7°C 53% 1.0 mph SSE1.6 kmh SSE 7.0 mph11.3 kmh 29.21 in989.2 mb 0.00 in0.0 mm 0.00 in/hr0.0 mm/hr 0.00 in0.0 mm
03:00 PM 59.0°F15.0°C 41.9°F5.5°C 53% 1.0 mph SSE1.6 kmh SSE 7.0 mph11.3 kmh 29.21 in989.2 mb 0.00 in0.0 mm 0.00 in/hr0.0 mm/hr 0.00 in0.0 mm
03:05 PM 59.0°F15.0°C 41.9°F5.5°C 53% 3.0 mph S4.8 kmh S 10.0 mph16.1 kmh 29.22 in989.5 mb 0.00 in0.0 mm 0.00 in/hr0.0 mm/hr 0.00 in0.0 mm
03:10 PM 59.0°F15.0°C 42.4°F5.8°C 54% 4.0 mph SSW6.4 kmh SSW 10.0 mph16.1 kmh 29.22 in989.5 mb 0.00 in0.0 mm 0.00 in/hr0.0 mm/hr 0.00 in0.0 mm
03:15 PM 59.0°F15.0°C 42.4°F5.8°C 54% 3.0 mph S4.8 kmh S 7.0 mph11.3 kmh 29.22 in989.5 mb 0.00 in0.0 mm 0.00 in/hr0.0 mm/hr 0.00 in0.0 mm
03:20 PM 59.0°F15.0°C 42.4°F5.8°C 54% 2.0 mph S3.2 kmh S 10.0 mph16.1 kmh 29.22 in989.5 mb 0.00 in0.0 mm 0.00 in/hr0.0 mm/hr 0.00 in0.0 mm
03:25 PM 59.0°F15.0°C 42.4°F5.8°C 54% 2.0 mph S3.2 kmh S 10.0 mph16.1 kmh 29.22 in989.5 mb 0.00 in0.0 mm 0.00 in/hr0.0 mm/hr 0.00 in0.0 mm
03:30 PM 59.0°F15.0°C 42.8°F6.0°C 55% 3.0 mph SSW4.8 kmh SSW 7.0 mph11.3 kmh 29.22 in989.5 mb 0.00 in0.0 mm 0.00 in/hr0.0 mm/hr 0.00 in0.0 mm
03:35 PM 58.9°F14.9°C 42.3°F5.7°C 54% 2.0 mph SSW3.2 kmh SSW 7.0 mph11.3 kmh 29.22 in989.5 mb 0.00 in0.0 mm 0.00 in/hr0.0 mm/hr 0.00 in0.0 mm
03:40 PM 58.8°F14.9°C 42.7°F5.9°C 55% 2.0 mph SSW3.2 kmh SSW 5.0 mph8.0 kmh 29.22 in989.5 mb 0.00 in0.0 mm 0.00 in/hr0.0 mm/hr 0.00 in0.0 mm
03:45 PM 58.7°F14.8°C 42.6°F5.9°C 55% 2.0 mph SSW3.2 kmh SSW 6.0 mph9.7 kmh 29.22 in989.5 mb 0.00 in0.0 mm 0.00 in/hr0.0 mm/hr 0.00 in0.0 mm
03:50 PM 58.7°F14.8°C 42.6°F5.9°C 55% 3.0 mph SSW4.8 kmh SSW 6.0 mph9.7 kmh 29.22 in989.5 mb 0.00 in0.0 mm 0.00 in/hr0.0 mm/hr 0.00 in0.0 mm
03:55 PM 58.7°F14.8°C 42.6°F5.9°C 55% 3.0 mph SSW4.8 kmh SSW 7.0 mph11.3 kmh 29.23 in989.8 mb 0.00 in0.0 mm 0.00 in/hr0.0 mm/hr 0.00 in0.0 mm
04:00 PM 58.6°F14.8°C 42.5°F5.8°C 55% 2.0 mph SSW3.2 kmh SSW 7.0 mph11.3 kmh 29.23 in989.8 mb 0.00 in0.0 mm 0.00 in/hr0.0 mm/hr 0.00 in0.0 mm
04:05 PM 58.6°F14.8°C 42.0°F5.6°C 54% 2.0 mph S3.2 kmh S 5.0 mph8.0 kmh 29.23 in989.8 mb 0.00 in0.0 mm 0.00 in/hr0.0 mm/hr 0.00 in0.0 mm
04:10 PM 58.6°F14.8°C 42.5°F5.8°C 55% 2.0 mph S3.2 kmh S 4.0 mph6.4 kmh 29.23 in989.8 mb 0.00 in0.0 mm 0.00 in/hr0.0 mm/hr 0.00 in0.0 mm
04:15 PM 58.6°F14.8°C 42.5°F5.8°C 55% 2.0 mph S3.2 kmh S 8.0 mph12.9 kmh 29.23 in989.8 mb 0.00 in0.0 mm 0.00 in/hr0.0 mm/hr 0.00 in0.0 mm
04:20 PM 58.5°F14.7°C 42.8°F6.0°C 56% 2.0 mph SSW3.2 kmh SSW 8.0 mph12.9 kmh 29.23 in989.8 mb 0.00 in0.0 mm 0.00 in/hr0.0 mm/hr 0.00 in0.0 mm
04:25 PM 58.5°F14.7°C 42.4°F5.8°C 55% 2.0 mph SSW3.2 kmh SSW 8.0 mph12.9 kmh 29.23 in989.8 mb 0.00 in0.0 mm 0.00 in/hr0.0 mm/hr 0.00 in0.0 mm
04:30 PM 58.4°F14.7°C 43.2°F6.2°C 57% 2.0 mph SW3.2 kmh SW 8.0 mph12.9 kmh 29.23 in989.8 mb 0.00 in0.0 mm 0.00 in/hr0.0 mm/hr 0.00 in0.0 mm
04:35 PM 58.4°F14.7°C 43.2°F6.2°C 57% 1.0 mph SSW1.6 kmh SSW 4.0 mph6.4 kmh 29.23 in989.8 mb 0.00 in0.0 mm 0.00 in/hr0.0 mm/hr 0.00 in0.0 mm
04:40 PM 58.4°F14.7°C 43.2°F6.2°C 57% 1.0 mph S1.6 kmh S 3.0 mph4.8 kmh 29.23 in989.8 mb 0.00 in0.0 mm 0.00 in/hr0.0 mm/hr 0.00 in0.0 mm
04:45 PM 58.3°F14.6°C 43.1°F6.2°C 57% 1.0 mph SSW1.6 kmh SSW 5.0 mph8.0 kmh 29.23 in989.8 mb 0.00 in0.0 mm 0.00 in/hr0.0 mm/hr 0.00 in0.0 mm
04:50 PM 58.2°F14.6°C 43.0°F6.1°C 57% 1.0 mph SW1.6 kmh SW 5.0 mph8.0 kmh 29.23 in989.8 mb 0.00 in0.0 mm 0.00 in/hr0.0 mm/hr 0.00 in0.0 mm
04:55 PM 58.1°F14.5°C 43.8°F6.6°C 59% Calm Calm 3.0 mph4.8 kmh 29.24 in990.2 mb 0.00 in0.0 mm 0.00 in/hr0.0 mm/hr 0.00 in0.0 mm
05:00 PM 57.9°F14.4°C 43.7°F6.5°C 59% Calm Calm 3.0 mph4.8 kmh 29.24 in990.2 mb 0.00 in0.0 mm 0.00 in/hr0.0 mm/hr 0.00 in0.0 mm
05:05 PM 57.8°F14.3°C 44.0°F6.7°C 60% 1.0 mph SW1.6 kmh SW 3.0 mph4.8 kmh 29.24 in990.2 mb 0.00 in0.0 mm 0.00 in/hr0.0 mm/hr 0.00 in0.0 mm
05:10 PM 57.7°F14.3°C 43.9°F6.6°C 60% 1.0 mph SW1.6 kmh SW 4.0 mph6.4 kmh 29.24 in990.2 mb 0.00 in0.0 mm 0.00 in/hr0.0 mm/hr 0.00 in0.0 mm
05:15 PM 57.5°F14.2°C 43.7°F6.5°C 60% 1.0 mph SW1.6 kmh SW 4.0 mph6.4 kmh 29.25 in990.5 mb 0.00 in0.0 mm 0.00 in/hr0.0 mm/hr 0.00 in0.0 mm
05:20 PM 57.4°F14.1°C 43.2°F6.2°C 59% 1.0 mph SW1.6 kmh SW 4.0 mph6.4 kmh 29.25 in990.5 mb 0.00 in0.0 mm 0.00 in/hr0.0 mm/hr 0.00 in0.0 mm
05:25 PM 57.3°F14.1°C 43.5°F6.4°C 60% 1.0 mph SW1.6 kmh SW 4.0 mph6.4 kmh 29.25 in990.5 mb 0.00 in0.0 mm 0.00 in/hr0.0 mm/hr 0.00 in0.0 mm
05:30 PM 57.1°F13.9°C 43.8°F6.6°C 61% Calm Calm 3.0 mph4.8 kmh 29.25 in990.5 mb 0.00 in0.0 mm 0.00 in/hr0.0 mm/hr 0.00 in0.0 mm
05:35 PM 57.0°F13.9°C 43.7°F6.5°C 61% Calm Calm 3.0 mph4.8 kmh 29.25 in990.5 mb 0.00 in0.0 mm 0.00 in/hr0.0 mm/hr 0.00 in0.0 mm
05:40 PM 56.9°F13.8°C 44.8°F7.1°C 64% Calm Calm 2.0 mph3.2 kmh 29.25 in990.5 mb 0.00 in0.0 mm 0.00 in/hr0.0 mm/hr 0.00 in0.0 mm
05:45 PM 56.7°F13.7°C 44.7°F7.1°C 64% Calm Calm 2.0 mph3.2 kmh 29.26 in990.9 mb 0.00 in0.0 mm 0.00 in/hr0.0 mm/hr 0.00 in0.0 mm
05:50 PM 56.6°F13.7°C 44.1°F6.7°C 63% Calm Calm 1.0 mph1.6 kmh 29.26 in990.9 mb 0.00 in0.0 mm 0.00 in/hr0.0 mm/hr 0.00 in0.0 mm
05:55 PM 56.4°F13.6°C 44.4°F6.9°C 64% Calm Calm 3.0 mph4.8 kmh 29.26 in990.9 mb 0.00 in0.0 mm 0.00 in/hr0.0 mm/hr 0.00 in0.0 mm
06:00 PM 56.3°F13.5°C 44.3°F6.8°C 64% Calm Calm 3.0 mph4.8 kmh 29.26 in990.9 mb 0.00 in0.0 mm 0.00 in/hr0.0 mm/hr 0.00 in0.0 mm
06:05 PM 56.2°F13.4°C 44.6°F7.0°C 65% Calm Calm 2.0 mph3.2 kmh 29.27 in991.2 mb 0.00 in0.0 mm 0.00 in/hr0.0 mm/hr 0.00 in0.0 mm
06:10 PM 56.0°F13.3°C 44.8°F7.1°C 66% Calm Calm 2.0 mph3.2 kmh 29.27 in991.2 mb 0.00 in0.0 mm 0.00 in/hr0.0 mm/hr 0.00 in0.0 mm
06:15 PM 55.9°F13.3°C 44.7°F7.1°C 66% Calm Calm -- 29.27 in991.2 mb 0.00 in0.0 mm 0.00 in/hr0.0 mm/hr 0.00 in0.0 mm
06:20 PM 55.7°F13.2°C 44.9°F7.2°C 67% Calm Calm -- 29.27 in991.2 mb 0.00 in0.0 mm 0.00 in/hr0.0 mm/hr 0.00 in0.0 mm
06:25 PM 55.5°F13.1°C 44.7°F7.1°C 67% Calm Calm -- 29.27 in991.2 mb 0.00 in0.0 mm 0.00 in/hr0.0 mm/hr 0.00 in0.0 mm
06:30 PM 55.3°F12.9°C 44.5°F6.9°C 67% Calm Calm 2.0 mph3.2 kmh 29.27 in991.2 mb 0.00 in0.0 mm 0.00 in/hr0.0 mm/hr 0.00 in0.0 mm
06:35 PM 55.1°F12.8°C 44.7°F7.1°C 68% 1.0 mph SSW1.6 kmh SSW 2.0 mph3.2 kmh 29.27 in991.2 mb 0.00 in0.0 mm 0.00 in/hr0.0 mm/hr 0.00 in0.0 mm
06:40 PM 54.9°F12.7°C 44.5°F6.9°C 68% 1.0 mph SSW1.6 kmh SSW 3.0 mph4.8 kmh 29.27 in991.2 mb 0.00 in0.0 mm 0.00 in/hr0.0 mm/hr 0.00 in0.0 mm
06:45 PM 54.7°F12.6°C 44.7°F7.1°C 69% 1.0 mph SSW1.6 kmh SSW 3.0 mph4.8 kmh 29.28 in991.5 mb 0.00 in0.0 mm 0.00 in/hr0.0 mm/hr 0.00 in0.0 mm
06:50 PM 54.4°F12.4°C 44.8°F7.1°C 70% 1.0 mph SSW1.6 kmh SSW 3.0 mph4.8 kmh 29.28 in991.5 mb 0.00 in0.0 mm 0.00 in/hr0.0 mm/hr 0.00 in0.0 mm
06:55 PM 54.2°F12.3°C 44.6°F7.0°C 70% 1.0 mph SSW1.6 kmh SSW 2.0 mph3.2 kmh 29.28 in991.5 mb 0.00 in0.0 mm 0.00 in/hr0.0 mm/hr 0.00 in0.0 mm
07:00 PM 53.9°F12.2°C 44.7°F7.1°C 71% Calm Calm 2.0 mph3.2 kmh 29.29 in991.9 mb 0.00 in0.0 mm 0.00 in/hr0.0 mm/hr 0.00 in0.0 mm
07:05 PM 53.7°F12.1°C 44.5°F6.9°C 71% Calm Calm 2.0 mph3.2 kmh 29.29 in991.9 mb 0.00 in0.0 mm 0.00 in/hr0.0 mm/hr 0.00 in0.0 mm
07:10 PM 53.4°F11.9°C 44.2°F6.8°C 71% 1.0 mph SSW1.6 kmh SSW 2.0 mph3.2 kmh 29.29 in991.9 mb 0.00 in0.0 mm 0.00 in/hr0.0 mm/hr 0.00 in0.0 mm
07:15 PM 53.1°F11.7°C 44.3°F6.8°C 72% Calm Calm 2.0 mph3.2 kmh 29.29 in991.9 mb 0.00 in0.0 mm 0.00 in/hr0.0 mm/hr 0.00 in0.0 mm
07:20 PM 52.7°F11.5°C 43.9°F6.6°C 72% 1.0 mph SSW1.6 kmh SSW 3.0 mph4.8 kmh 29.29 in991.9 mb 0.00 in0.0 mm 0.00 in/hr0.0 mm/hr 0.00 in0.0 mm
07:25 PM 52.5°F11.4°C 43.7°F6.5°C 72% 1.0 mph SSW1.6 kmh SSW 3.0 mph4.8 kmh 29.29 in991.9 mb 0.00 in0.0 mm 0.00 in/hr0.0 mm/hr 0.00 in0.0 mm
07:30 PM 52.3°F11.3°C 43.9°F6.6°C 73% 1.0 mph SW1.6 kmh SW 4.0 mph6.4 kmh 29.29 in991.9 mb 0.00 in0.0 mm 0.00 in/hr0.0 mm/hr 0.00 in0.0 mm
07:35 PM 52.1°F11.2°C 44.1°F6.7°C 74% 1.0 mph WSW1.6 kmh WSW 4.0 mph6.4 kmh 29.29 in991.9 mb 0.00 in0.0 mm 0.00 in/hr0.0 mm/hr 0.00 in0.0 mm
07:40 PM 51.9°F11.1°C 44.2°F6.8°C 75% Calm Calm 3.0 mph4.8 kmh 29.29 in991.9 mb 0.00 in0.0 mm 0.00 in/hr0.0 mm/hr 0.00 in0.0 mm
07:45 PM 51.7°F10.9°C 43.7°F6.5°C 74% Calm Calm 2.0 mph3.2 kmh 29.30 in992.2 mb 0.00 in0.0 mm 0.00 in/hr0.0 mm/hr 0.00 in0.0 mm
07:50 PM 51.5°F10.8°C 43.8°F6.6°C 75% 1.0 mph WSW1.6 kmh WSW 3.0 mph4.8 kmh 29.30 in992.2 mb 0.00 in0.0 mm 0.00 in/hr0.0 mm/hr 0.00 in0.0 mm
07:55 PM 51.3°F10.7°C 43.6°F6.4°C 75% 1.0 mph WSW1.6 kmh WSW 3.0 mph4.8 kmh 29.30 in992.2 mb 0.00 in0.0 mm 0.00 in/hr0.0 mm/hr 0.00 in0.0 mm
08:00 PM 51.2°F10.7°C 43.9°F6.6°C 76% Calm Calm 2.0 mph3.2 kmh 29.30 in992.2 mb 0.00 in0.0 mm 0.00 in/hr0.0 mm/hr 0.00 in0.0 mm
08:05 PM 50.8°F10.4°C 43.5°F6.4°C 76% Calm Calm 2.0 mph3.2 kmh 29.30 in992.2 mb 0.00 in0.0 mm 0.00 in/hr0.0 mm/hr 0.00 in0.0 mm
08:10 PM 50.5°F10.3°C 43.2°F6.2°C 76% Calm Calm 2.0 mph3.2 kmh 29.30 in992.2 mb 0.00 in0.0 mm 0.00 in/hr0.0 mm/hr 0.00 in0.0 mm
08:15 PM 50.3°F10.2°C 43.0°F6.1°C 76% 1.0 mph WSW1.6 kmh WSW 2.0 mph3.2 kmh 29.30 in992.2 mb 0.00 in0.0 mm 0.00 in/hr0.0 mm/hr 0.00 in0.0 mm
08:20 PM 50.0°F10.0°C 43.1°F6.2°C 77% Calm Calm 2.0 mph3.2 kmh 29.30 in992.2 mb 0.00 in0.0 mm 0.00 in/hr0.0 mm/hr 0.00 in0.0 mm
08:25 PM 49.7°F9.8°C 43.1°F6.2°C 78% Calm Calm 2.0 mph3.2 kmh 29.31 in992.6 mb 0.00 in0.0 mm 0.00 in/hr0.0 mm/hr 0.00 in0.0 mm
08:30 PM 49.3°F9.6°C 42.7°F5.9°C 78% Calm Calm 2.0 mph3.2 kmh 29.31 in992.6 mb 0.00 in0.0 mm 0.00 in/hr0.0 mm/hr 0.00 in0.0 mm
08:35 PM 49.1°F9.5°C 42.5°F5.8°C 78% 1.0 mph WSW1.6 kmh WSW 3.0 mph4.8 kmh 29.31 in992.6 mb 0.00 in0.0 mm 0.00 in/hr0.0 mm/hr 0.00 in0.0 mm
08:40 PM 48.9°F9.4°C 42.7°F5.9°C 79% 1.0 mph WSW1.6 kmh WSW 3.0 mph4.8 kmh 29.31 in992.6 mb 0.00 in0.0 mm 0.00 in/hr0.0 mm/hr 0.00 in0.0 mm
08:45 PM 48.6°F9.2°C 42.4°F5.8°C 79% 1.0 mph WSW1.6 kmh WSW 3.0 mph4.8 kmh 29.31 in992.6 mb 0.00 in0.0 mm 0.00 in/hr0.0 mm/hr 0.00 in0.0 mm
08:50 PM 48.3°F9.1°C 42.4°F5.8°C 80% 1.0 mph WSW1.6 kmh WSW 3.0 mph4.8 kmh 29.31 in992.6 mb 0.00 in0.0 mm 0.00 in/hr0.0 mm/hr 0.00 in0.0 mm
08:55 PM 48.0°F8.9°C 42.1°F5.6°C 80% 1.0 mph WSW1.6 kmh WSW 2.0 mph3.2 kmh 29.32 in992.9 mb 0.00 in0.0 mm 0.00 in/hr0.0 mm/hr 0.00 in0.0 mm
09:00 PM 47.8°F8.8°C 41.9°F5.5°C 80% 1.0 mph WSW1.6 kmh WSW 3.0 mph4.8 kmh 29.32 in992.9 mb 0.00 in0.0 mm 0.00 in/hr0.0 mm/hr 0.00 in0.0 mm
09:05 PM 47.6°F8.7°C 42.1°F5.6°C 81% 1.0 mph WSW1.6 kmh WSW 3.0 mph4.8 kmh 29.31 in992.6 mb 0.00 in0.0 mm 0.00 in/hr0.0 mm/hr 0.00 in0.0 mm
09:10 PM 47.4°F8.6°C 41.9°F5.5°C 81% 1.0 mph WSW1.6 kmh WSW 4.0 mph6.4 kmh 29.32 in992.9 mb 0.00 in0.0 mm 0.00 in/hr0.0 mm/hr 0.00 in0.0 mm
09:15 PM 47.2°F8.4°C 41.7°F5.4°C 81% 1.0 mph WSW1.6 kmh WSW 4.0 mph6.4 kmh 29.32 in992.9 mb 0.00 in0.0 mm 0.00 in/hr0.0 mm/hr 0.00 in0.0 mm
09:20 PM 47.0°F8.3°C 41.5°F5.3°C 81% 1.0 mph WSW1.6 kmh WSW 3.0 mph4.8 kmh 29.32 in992.9 mb 0.00 in0.0 mm 0.00 in/hr0.0 mm/hr 0.00 in0.0 mm
09:25 PM 46.8°F8.2°C 41.3°F5.2°C 81% 1.0 mph WSW1.6 kmh WSW 2.0 mph3.2 kmh 29.32 in992.9 mb 0.00 in0.0 mm 0.00 in/hr0.0 mm/hr 0.00 in0.0 mm
09:30 PM 46.7°F8.2°C 41.5°F5.3°C 82% Calm Calm 2.0 mph3.2 kmh 29.32 in992.9 mb 0.00 in0.0 mm 0.00 in/hr0.0 mm/hr 0.00 in0.0 mm
09:35 PM 46.5°F8.1°C 41.3°F5.2°C 82% Calm Calm 2.0 mph3.2 kmh 29.32 in992.9 mb 0.00 in0.0 mm 0.00 in/hr0.0 mm/hr 0.00 in0.0 mm
09:40 PM 46.4°F8.0°C 41.2°F5.1°C 82% Calm Calm 2.0 mph3.2 kmh 29.32 in992.9 mb 0.00 in0.0 mm 0.00 in/hr0.0 mm/hr 0.00 in0.0 mm
09:45 PM 46.2°F7.9°C 41.3°F5.2°C 83% Calm Calm 1.0 mph1.6 kmh 29.33 in993.2 mb 0.00 in0.0 mm 0.00 in/hr0.0 mm/hr 0.00 in0.0 mm
09:50 PM 46.1°F7.8°C 41.2°F5.1°C 83% Calm Calm -- 29.33 in993.2 mb 0.00 in0.0 mm 0.00 in/hr0.0 mm/hr 0.00 in0.0 mm
09:55 PM 46.0°F7.8°C 41.1°F5.1°C 83% Calm Calm -- 29.33 in993.2 mb 0.00 in0.0 mm 0.00 in/hr0.0 mm/hr 0.00 in0.0 mm
10:00 PM 45.9°F7.7°C 41.3°F5.2°C 84% Calm Calm -- 29.33 in993.2 mb 0.00 in0.0 mm 0.00 in/hr0.0 mm/hr 0.00 in0.0 mm
10:05 PM 45.9°F7.7°C 41.3°F5.2°C 84% Calm Calm -- 29.32 in992.9 mb 0.00 in0.0 mm 0.00 in/hr0.0 mm/hr 0.00 in0.0 mm
10:10 PM 45.8°F7.7°C 41.2°F5.1°C 84% Calm Calm -- 29.33 in993.2 mb 0.00 in0.0 mm 0.00 in/hr0.0 mm/hr 0.00 in0.0 mm
10:15 PM 45.8°F7.7°C 41.2°F5.1°C 84% Calm Calm -- 29.33 in993.2 mb 0.00 in0.0 mm 0.00 in/hr0.0 mm/hr 0.00 in0.0 mm
10:20 PM 45.8°F7.7°C 41.2°F5.1°C 84% Calm Calm -- 29.33 in993.2 mb 0.00 in0.0 mm 0.00 in/hr0.0 mm/hr 0.00 in0.0 mm
10:25 PM 45.7°F7.6°C 41.1°F5.1°C 84% Calm Calm -- 29.33 in993.2 mb 0.00 in0.0 mm 0.00 in/hr0.0 mm/hr 0.00 in0.0 mm
10:30 PM 45.6°F7.6°C 41.0°F5.0°C 84% Calm Calm -- 29.33 in993.2 mb 0.00 in0.0 mm 0.00 in/hr0.0 mm/hr 0.00 in0.0 mm
10:35 PM 45.6°F7.6°C 41.0°F5.0°C 84% Calm Calm -- 29.33 in993.2 mb 0.00 in0.0 mm 0.00 in/hr0.0 mm/hr 0.00 in0.0 mm
10:40 PM 45.5°F7.5°C 41.3°F5.2°C 85% Calm Calm -- 29.33 in993.2 mb 0.00 in0.0 mm 0.00 in/hr0.0 mm/hr 0.00 in0.0 mm
10:45 PM 45.5°F7.5°C 41.3°F5.2°C 85% Calm Calm -- 29.33 in993.2 mb 0.00 in0.0 mm 0.00 in/hr0.0 mm/hr 0.00 in0.0 mm
10:50 PM 45.5°F7.5°C 41.3°F5.2°C 85% Calm Calm -- 29.33 in993.2 mb 0.00 in0.0 mm 0.00 in/hr0.0 mm/hr 0.00 in0.0 mm
10:55 PM 45.4°F7.4°C 41.2°F5.1°C 85% Calm Calm -- 29.33 in993.2 mb 0.00 in0.0 mm 0.00 in/hr0.0 mm/hr 0.00 in0.0 mm
11:00 PM 45.4°F7.4°C 41.2°F5.1°C 85% Calm Calm -- 29.33 in993.2 mb 0.00 in0.0 mm 0.00 in/hr0.0 mm/hr 0.00 in0.0 mm
11:05 PM 45.3°F7.4°C 41.4°F5.2°C 86% Calm Calm -- 29.33 in993.2 mb 0.00 in0.0 mm 0.00 in/hr0.0 mm/hr 0.00 in0.0 mm
11:10 PM 45.2°F7.3°C 41.3°F5.2°C 86% Calm Calm -- 29.33 in993.2 mb 0.00 in0.0 mm 0.00 in/hr0.0 mm/hr 0.00 in0.0 mm
11:15 PM 45.1°F7.3°C 40.9°F4.9°C 85% Calm Calm -- 29.34 in993.6 mb 0.00 in0.0 mm 0.00 in/hr0.0 mm/hr 0.00 in0.0 mm
11:20 PM 45.0°F7.2°C 40.8°F4.9°C 85% Calm Calm -- 29.34 in993.6 mb 0.00 in0.0 mm 0.00 in/hr0.0 mm/hr 0.00 in0.0 mm
11:25 PM 45.0°F7.2°C 41.1°F5.1°C 86% Calm Calm -- 29.34 in993.6 mb 0.00 in0.0 mm 0.00 in/hr0.0 mm/hr 0.00 in0.0 mm
11:30 PM 44.8°F7.1°C 40.9°F4.9°C 86% Calm Calm 3.0 mph4.8 kmh 29.34 in993.6 mb 0.00 in0.0 mm 0.00 in/hr0.0 mm/hr 0.00 in0.0 mm
11:35 PM 44.7°F7.1°C 40.8°F4.9°C 86% Calm Calm 3.0 mph4.8 kmh 29.34 in993.6 mb 0.00 in0.0 mm 0.00 in/hr0.0 mm/hr 0.00 in0.0 mm
11:40 PM 44.6°F7.0°C 40.7°F4.8°C 86% Calm Calm 2.0 mph3.2 kmh 29.34 in993.6 mb 0.00 in0.0 mm 0.00 in/hr0.0 mm/hr 0.00 in0.0 mm
11:45 PM 44.5°F6.9°C 40.6°F4.8°C 86% Calm Calm 2.0 mph3.2 kmh 29.34 in993.6 mb 0.00 in0.0 mm 0.00 in/hr0.0 mm/hr 0.00 in0.0 mm
11:50 PM 44.3°F6.8°C 40.4°F4.7°C 86% Calm Calm 3.0 mph4.8 kmh 29.34 in993.6 mb 0.00 in0.0 mm 0.00 in/hr0.0 mm/hr 0.00 in0.0 mm
11:55 PM 44.2°F6.8°C 40.3°F4.6°C 86% Calm Calm 3.0 mph4.8 kmh 29.34 in993.6 mb 0.00 in0.0 mm 0.00 in/hr0.0 mm/hr 0.00 in0.0 mm